Time;durP1;ratioP1;P1;durP2;ratioP2;P2;SDS_P1;SDS_P2;PMS_P1;PMS_P2;Temp;Humidity;BMP_temperature;BMP_pressure;BME280_temperature;BME280_humidity;BME280_pressure;Samples;Min_cycle;Max_cycle;Signal;HPM_P1;HPM_P2
2020/12/26 00:06:38;;;;;;;0.20;0.10;;;7.40;99.90;;;;;;20708772;28;20712;-76
2020/12/26 00:16:41;;;;;;;0.20;0.10;;;7.40;99.90;;;;;;20711885;28;20194;-75
2020/12/26 00:26:56;;;;;;;0.20;0.10;;;7.50;99.90;;;;;;20708470;28;20226;-75
2020/12/26 00:36:59;;;;;;;0.20;0.10;;;7.30;99.90;;;;;;20710513;28;20206;-75
2020/12/26 00:47:02;;;;;;;0.20;0.10;;;7.30;99.90;;;;;;20708458;28;20763;-74
2020/12/26 00:57:14;;;;;;;1.03;0.30;;;7.20;99.90;;;;;;20704926;28;20206;-74
2020/12/26 01:07:16;;;;;;;0.80;0.40;;;7.30;99.90;;;;;;20720751;22;20270;-69
2020/12/26 01:17:20;;;;;;;0.20;0.10;;;7.30;99.90;;;;;;20702102;28;20191;-71
2020/12/26 01:27:34;;;;;;;0.20;0.10;;;7.40;99.90;;;;;;20702738;28;20313;-71
2020/12/26 01:37:38;;;;;;;0.20;0.10;;;7.30;99.90;;;;;;20701830;28;20738;-69
2020/12/26 01:47:40;;;;;;;0.20;0.10;;;7.00;99.90;;;;;;20701701;28;20691;-69
2020/12/26 01:57:52;;;;;;;0.20;0.10;;;7.10;99.90;;;;;;20700990;28;20199;-70
2020/12/26 02:07:55;;;;;;;0.20;0.10;;;7.40;99.90;;;;;;20698840;28;20289;-70
2020/12/26 02:17:58;;;;;;;0.20;0.10;;;7.80;99.90;;;;;;20700186;28;20241;-69
2020/12/26 02:28:13;;;;;;;0.73;0.33;;;7.90;99.90;;;;;;20700362;28;20655;-70
2020/12/26 02:38:18;;;;;;;3.03;0.20;;;7.90;99.90;;;;;;20696682;28;20195;-70
2020/12/26 02:48:22;;;;;;;0.20;0.10;;;8.10;99.90;;;;;;20696986;28;20768;-70
2020/12/26 02:58:30;;;;;;;0.20;0.10;;;7.70;99.90;;;;;;20695555;28;20209;-67
2020/12/26 03:08:33;;;;;;;0.20;0.10;;;7.70;99.90;;;;;;20710791;23;20247;-74
2020/12/26 03:18:36;;;;;;;0.20;0.10;;;7.80;99.90;;;;;;20691811;28;20198;-75
2020/12/26 03:28:50;;;;;;;0.20;0.10;;;7.60;99.90;;;;;;20693701;28;20690;-74
2020/12/26 03:38:52;;;;;;;0.20;0.10;;;7.90;99.40;;;;;;20756280;28;20404;-75
2020/12/26 03:48:55;;;;;;;0.20;0.10;;;7.50;99.30;;;;;;20764454;28;20655;-73
2020/12/26 03:59:09;;;;;;;0.20;0.10;;;7.30;99.90;;;;;;20693685;28;20685;-74
2020/12/26 04:09:13;;;;;;;0.20;0.10;;;6.90;99.90;;;;;;20692623;28;20270;-74
2020/12/26 04:19:16;;;;;;;0.20;0.10;;;6.80;99.90;;;;;;20693741;28;20671;-73
2020/12/26 04:29:29;;;;;;;0.20;0.13;;;6.90;99.90;;;;;;20699499;28;20582;-74
2020/12/26 04:39:31;;;;;;;0.30;0.30;;;6.50;99.90;;;;;;20770243;28;20197;-74
2020/12/26 04:49:36;;;;;;;0.20;0.20;;;5.90;99.90;;;;;;20787875;28;20376;-73
2020/12/26 04:59:46;;;;;;;0.20;0.10;;;6.10;99.90;;;;;;20788201;28;20733;-75
2020/12/26 05:09:49;;;;;;;0.30;0.20;;;6.00;99.90;;;;;;20788246;28;20222;-73
2020/12/26 05:19:52;;;;;;;0.20;0.10;;;6.00;99.90;;;;;;20786002;28;20205;-72
2020/12/26 05:30:08;;;;;;;0.20;0.10;;;5.90;99.90;;;;;;20783346;28;20221;-72
2020/12/26 05:40:10;;;;;;;0.20;0.10;;;5.50;99.90;;;;;;20710709;28;20202;-77
2020/12/26 05:50:24;;;;;;;0.20;0.10;;;6.10;99.90;;;;;;20698867;28;20231;-76
2020/12/26 06:00:35;;;;;;;0.20;0.10;;;6.30;99.90;;;;;;20700411;28;20234;-76
2020/12/26 06:10:40;;;;;;;0.20;0.10;;;6.20;99.90;;;;;;20700492;28;20226;-74
2020/12/26 06:20:43;;;;;;;0.20;0.20;;;6.00;99.90;;;;;;20698489;28;20195;-75
2020/12/26 06:30:48;;;;;;;0.20;0.10;;;6.00;99.90;;;;;;20700387;28;20726;-74
2020/12/26 06:41:01;;;;;;;0.20;0.10;;;5.80;99.90;;;;;;20774594;28;20194;-77
2020/12/26 06:51:26;;;;;;;0.20;0.10;;;6.30;99.90;;;;;;20778332;28;20228;-75
2020/12/26 07:01:29;;;;;;;0.20;0.10;;;6.00;99.90;;;;;;20775189;28;20233;-78
2020/12/26 07:11:32;;;;;;;0.20;0.10;;;5.90;99.90;;;;;;20777564;28;20383;-76
2020/12/26 07:21:39;;;;;;;0.20;0.10;;;5.60;99.90;;;;;;20776816;28;20202;-76
2020/12/26 07:31:49;;;;;;;0.20;0.10;;;5.50;99.90;;;;;;20772745;28;20213;-76
2020/12/26 07:41:52;;;;;;;1.37;0.57;;;5.90;99.90;;;;;;20694855;28;20206;-74
2020/12/26 07:52:06;;;;;;;0.50;0.50;;;6.00;99.90;;;;;;20693008;28;20234;-77
2020/12/26 08:02:08;;;;;;;0.20;0.10;;;6.40;99.90;;;;;;20697235;28;20242;-77
2020/12/26 08:12:12;;;;;;;0.20;0.20;;;6.20;99.90;;;;;;20707813;28;20242;-73
2020/12/26 08:22:15;;;;;;;0.20;0.20;;;6.30;99.90;;;;;;20709663;28;20655;-75
2020/12/26 08:32:19;;;;;;;0.60;0.60;;;6.30;99.90;;;;;;20713444;28;20303;-72
2020/12/26 08:42:22;;;;;;;0.20;0.10;;;6.50;99.90;;;;;;20787118;28;20194;-73
2020/12/26 08:52:26;;;;;;;0.53;0.33;;;6.90;99.90;;;;;;20735454;28;20648;-73
2020/12/26 09:02:29;;;;;;;0.20;0.10;;;7.20;99.90;;;;;;20704446;28;20276;-72
2020/12/26 09:12:33;;;;;;;0.20;0.10;;;7.80;99.90;;;;;;20699978;28;20235;-74
2020/12/26 09:22:35;;;;;;;0.30;0.20;;;8.20;99.90;;;;;;20701279;28;20210;-73
2020/12/26 09:32:55;;;;;;;3.17;0.40;;;8.30;99.90;;;;;;20699992;28;20227;-73
2020/12/26 09:42:57;;;;;;;0.20;0.10;;;8.70;99.90;;;;;;20700495;28;20191;-74
2020/12/26 09:53:01;;;;;;;0.20;0.20;;;9.10;99.90;;;;;;20700593;28;20234;-75
2020/12/26 10:03:04;;;;;;;0.20;0.20;;;9.40;98.50;;;;;;20698901;28;20230;-76
2020/12/26 10:13:07;;;;;;;0.77;0.50;;;9.50;99.00;;;;;;20697771;28;20584;-74
2020/12/26 10:23:10;;;;;;;0.70;0.33;;;10.00;98.40;;;;;;20695592;28;20191;-72
2020/12/26 10:33:24;;;;;;;1.37;0.40;;;10.30;98.00;;;;;;20696012;28;20233;-75
2020/12/26 10:43:27;;;;;;;1.07;0.53;;;11.10;96.50;;;;;;20691743;28;20612;-74
2020/12/26 10:53:30;;;;;;;0.20;0.10;;;11.40;96.50;;;;;;20692857;28;20229;-72
2020/12/26 11:03:42;;;;;;;0.30;0.20;;;12.10;96.60;;;;;;20689797;28;20230;-73
2020/12/26 11:13:45;;;;;;;0.73;0.30;;;13.30;96.10;;;;;;20694285;28;20223;-76
2020/12/26 11:23:49;;;;;;;1.60;0.50;;;13.30;93.70;;;;;;20692740;28;20644;-73
2020/12/26 11:34:05;;;;;;;0.50;0.20;;;13.70;92.90;;;;;;20719077;28;20576;-76
2020/12/26 11:44:08;;;;;;;0.40;0.40;;;14.60;92.00;;;;;;20690696;28;20201;-73
2020/12/26 11:54:11;;;;;;;0.50;0.30;;;15.40;92.20;;;;;;20691815;28;20230;-73
2020/12/26 12:04:25;;;;;;;0.77;0.27;;;15.90;93.70;;;;;;20692091;28;20366;-75
2020/12/26 12:14:29;;;;;;;1.40;1.03;;;17.30;92.40;;;;;;20688719;28;20219;-74
2020/12/26 12:24:32;;;;;;;0.37;0.23;;;18.00;91.80;;;;;;20690962;28;20203;-74
2020/12/26 12:34:43;;;;;;;1.70;0.60;;;17.60;90.20;;;;;;20715602;28;20255;-75
2020/12/26 12:44:45;;;;;;;5.10;0.63;;;17.20;91.70;;;;;;20772816;28;20211;-73
2020/12/26 12:54:49;;;;;;;0.70;0.43;;;16.20;90.80;;;;;;20784298;28;20682;-72
2020/12/26 13:05:00;;;;;;;0.37;0.33;;;16.60;95.20;;;;;;20784507;28;20230;-72
2020/12/26 13:15:10;;;;;;;0.50;0.43;;;16.60;93.00;;;;;;20784059;28;20232;-73
2020/12/26 13:25:12;;;;;;;1.60;0.83;;;15.60;99.80;;;;;;20783120;28;20268;-72
2020/12/26 13:35:24;;;;;;;2.53;1.47;;;14.50;99.90;;;;;;20750993;28;20225;-72
2020/12/26 13:45:26;;;;;;;4.20;1.33;;;14.00;99.90;;;;;;20701874;28;20630;-73
2020/12/26 13:55:30;;;;;;;0.93;0.63;;;13.90;99.90;;;;;;20702213;28;20482;-72
2020/12/26 14:05:39;;;;;;;0.53;0.53;;;14.00;99.90;;;;;;20696842;28;20552;-73
2020/12/26 14:15:43;;;;;;;0.43;0.40;;;14.00;99.90;;;;;;20699353;28;20199;-72
2020/12/26 14:25:46;;;;;;;2.00;1.33;;;13.70;99.90;;;;;;20693936;28;20245;-70
2020/12/26 14:35:59;;;;;;;2.37;1.33;;;13.40;99.90;;;;;;20690955;28;20194;-70
2020/12/26 14:46:06;;;;;;;4.47;1.07;;;13.00;99.90;;;;;;20695743;28;20741;-73
2020/12/26 14:56:12;;;;;;;1.27;1.17;;;12.70;99.90;;;;;;20687662;28;20217;-72
2020/12/26 15:06:24;;;;;;;0.70;0.60;;;12.10;99.90;;;;;;20691685;28;20813;-72
2020/12/26 15:16:28;;;;;;;0.70;0.70;;;11.90;99.90;;;;;;20693035;28;20206;-72
2020/12/26 15:26:32;;;;;;;2.40;1.47;;;11.60;99.90;;;;;;20689363;28;20237;-72
2020/12/26 15:36:40;;;;;;;0.87;0.87;;;11.10;99.90;;;;;;20693069;28;20201;-73
2020/12/26 15:46:44;;;;;;;1.83;1.27;;;10.80;99.90;;;;;;20691315;28;20249;-71
2020/12/26 15:56:47;;;;;;;1.10;0.87;;;10.30;99.90;;;;;;20692526;28;20706;-73
2020/12/26 16:06:59;;;;;;;3.67;1.17;;;9.40;99.90;;;;;;20690688;28;20235;-74
2020/12/26 16:17:03;;;;;;;2.73;1.50;;;8.60;99.90;;;;;;20687646;28;20187;-73
2020/12/26 16:27:06;;;;;;;1.80;1.43;;;8.40;99.90;;;;;;20700768;28;20684;-74
2020/12/26 16:37:19;;;;;;;5.93;2.10;;;7.60;99.90;;;;;;20707033;28;20674;-72
2020/12/26 16:47:24;;;;;;;3.07;2.40;;;7.40;99.90;;;;;;20700186;28;20223;-72
2020/12/26 16:57:28;;;;;;;2.83;2.57;;;7.40;99.90;;;;;;20702744;28;20267;-72
2020/12/26 17:07:37;;;;;;;17.57;1.47;;;7.40;99.90;;;;;;20700383;28;20633;-73
2020/12/26 17:17:40;;;;;;;0.60;0.60;;;7.00;99.90;;;;;;20700468;28;20207;-75
2020/12/26 17:27:43;;;;;;;0.83;0.77;;;7.00;99.90;;;;;;20697778;28;20215;-71
2020/12/26 17:37:54;;;;;;;1.23;0.90;;;7.10;99.90;;;;;;20700595;28;20202;-71
2020/12/26 17:47:57;;;;;;;6.63;1.17;;;7.10;99.90;;;;;;20696607;28;20311;-72
2020/12/26 17:58:01;;;;;;;1.70;0.83;;;7.20;99.90;;;;;;20697155;28;20203;-73
2020/12/26 18:08:13;;;;;;;0.97;0.97;;;7.10;99.90;;;;;;20696503;28;20234;-71
2020/12/26 18:18:17;;;;;;;1.33;1.23;;;7.20;99.90;;;;;;20691557;28;20194;-72
2020/12/26 18:28:19;;;;;;;1.33;1.03;;;7.30;99.90;;;;;;20694833;28;20605;-70
2020/12/26 18:38:43;;;;;;;2.83;1.13;;;7.10;99.90;;;;;;20753614;28;20198;-71
2020/12/26 18:48:46;;;;;;;1.37;1.10;;;6.90;99.90;;;;;;20773419;28;20311;-70
2020/12/26 18:58:50;;;;;;;0.37;0.37;;;6.70;99.90;;;;;;20775021;28;20329;-72
2020/12/26 19:08:53;;;;;;;7.93;2.40;;;6.60;99.90;;;;;;20770228;28;21023;-70
2020/12/26 19:18:58;;;;;;;0.40;0.40;;;6.70;99.90;;;;;;20774938;28;20230;-72
2020/12/26 19:29:01;;;;;;;0.47;0.40;;;6.80;99.90;;;;;;20771640;28;20313;-72
2020/12/26 19:39:13;;;;;;;1.10;0.70;;;6.90;99.90;;;;;;20705246;28;20619;-70
2020/12/26 19:49:17;;;;;;;2.43;1.00;;;7.00;99.90;;;;;;20691528;28;20648;-70
2020/12/26 19:59:22;;;;;;;1.17;0.83;;;6.90;99.90;;;;;;20697292;28;20202;-70
2020/12/26 20:09:32;;;;;;;2.80;1.17;;;7.00;99.90;;;;;;20707256;28;20263;-71
2020/12/26 20:19:35;;;;;;;1.43;1.17;;;7.20;99.90;;;;;;20703590;28;20202;-72
2020/12/26 20:29:38;;;;;;;0.57;0.43;;;7.20;99.90;;;;;;20706298;28;20877;-72
2020/12/26 20:39:51;;;;;;;2.73;2.13;;;7.10;99.90;;;;;;20706939;28;20205;-70
2020/12/26 20:49:55;;;;;;;1.30;0.90;;;7.00;99.90;;;;;;20701968;28;20280;-71
2020/12/26 20:59:58;;;;;;;1.97;1.20;;;7.00;99.90;;;;;;20705463;28;20277;-72
2020/12/26 21:10:11;;;;;;;0.80;0.80;;;6.80;99.90;;;;;;20702085;28;20218;-71
2020/12/26 21:20:14;;;;;;;0.30;0.30;;;6.70;99.90;;;;;;20701940;28;20197;-72
2020/12/26 21:30:17;;;;;;;1.43;1.33;;;6.10;99.90;;;;;;20700528;28;20229;-71
2020/12/26 21:40:27;;;;;;;0.80;0.70;;;5.90;99.90;;;;;;20703959;28;20203;-72
2020/12/26 21:50:30;;;;;;;0.63;0.63;;;6.00;99.90;;;;;;20702125;28;20384;-72
2020/12/26 22:00:34;;;;;;;0.83;0.53;;;6.30;99.90;;;;;;20700779;28;20245;-75
2020/12/26 22:10:50;;;;;;;0.60;0.60;;;6.10;99.90;;;;;;20700695;28;20261;-74
2020/12/26 22:20:55;;;;;;;0.57;0.53;;;6.40;99.90;;;;;;20696087;28;20652;-76
2020/12/26 22:30:59;;;;;;;0.63;0.63;;;6.30;99.90;;;;;;20698463;28;20230;-73
2020/12/26 22:41:14;;;;;;;2.20;1.13;;;6.20;99.90;;;;;;20709434;28;20199;-75
2020/12/26 22:51:20;;;;;;;0.90;0.90;;;5.70;99.90;;;;;;20697054;28;20321;-77
2020/12/26 23:01:26;;;;;;;0.93;0.93;;;5.90;99.90;;;;;;20694125;28;20373;-75
2020/12/26 23:11:28;;;;;;;0.27;0.27;;;5.70;99.90;;;;;;20695089;28;20234;-75
2020/12/26 23:21:33;;;;;;;0.23;0.23;;;5.40;99.90;;;;;;20695438;28;20199;-74
2020/12/26 23:31:37;;;;;;;0.40;0.40;;;5.20;99.90;;;;;;20696641;28;20226;-74
2020/12/26 23:41:48;;;;;;;0.20;0.20;;;5.00;99.90;;;;;;20688763;28;20503;-73
2020/12/26 23:51:51;;;;;;;0.20;0.17;;;4.80;99.90;;;;;;20689823;28;20222;-74
